sensor_id;sensor_type;location;lat;lon;timestamp;P1;durP1;ratioP1;P2;durP2;ratioP2
29202;SDS011;16245;51.170;4.884;2022-08-05T00:01:17;5.47;;;4.05;;
29202;SDS011;16245;51.170;4.884;2022-08-05T00:03:44;4.55;;;3.97;;
29202;SDS011;16245;51.170;4.884;2022-08-05T00:06:11;7.80;;;4.20;;
29202;SDS011;16245;51.170;4.884;2022-08-05T00:08:36;6.65;;;4.20;;
29202;SDS011;16245;51.170;4.884;2022-08-05T00:11:08;5.72;;;4.03;;
29202;SDS011;16245;51.170;4.884;2022-08-05T00:13:36;4.90;;;4.00;;
29202;SDS011;16245;51.170;4.884;2022-08-05T00:16:03;7.85;;;4.00;;
29202;SDS011;16245;51.170;4.884;2022-08-05T00:18:30;7.25;;;4.57;;
29202;SDS011;16245;51.170;4.884;2022-08-05T00:20:56;9.38;;;5.53;;
29202;SDS011;16245;51.170;4.884;2022-08-05T00:23:21;7.40;;;4.90;;
29202;SDS011;16245;51.170;4.884;2022-08-05T00:25:48;5.63;;;3.90;;
29202;SDS011;16245;51.170;4.884;2022-08-05T00:28:14;4.90;;;4.38;;
29202;SDS011;16245;51.170;4.884;2022-08-05T00:30:40;7.38;;;4.43;;
29202;SDS011;16245;51.170;4.884;2022-08-05T00:33:06;9.65;;;5.38;;
29202;SDS011;16245;51.170;4.884;2022-08-05T00:35:32;8.93;;;4.57;;
29202;SDS011;16245;51.170;4.884;2022-08-05T00:37:57;9.20;;;4.60;;
29202;SDS011;16245;51.170;4.884;2022-08-05T00:40:24;8.40;;;4.80;;
29202;SDS011;16245;51.170;4.884;2022-08-05T00:42:50;10.73;;;5.30;;
29202;SDS011;16245;51.170;4.884;2022-08-05T00:45:16;6.90;;;4.50;;
29202;SDS011;16245;51.170;4.884;2022-08-05T00:47:42;9.77;;;5.47;;
29202;SDS011;16245;51.170;4.884;2022-08-05T00:50:08;7.60;;;4.43;;
29202;SDS011;16245;51.170;4.884;2022-08-05T00:52:34;8.50;;;5.75;;
29202;SDS011;16245;51.170;4.884;2022-08-05T00:55:00;9.02;;;5.85;;
29202;SDS011;16245;51.170;4.884;2022-08-05T00:57:26;10.30;;;6.40;;
29202;SDS011;16245;51.170;4.884;2022-08-05T00:59:51;13.05;;;6.00;;
29202;SDS011;16245;51.170;4.884;2022-08-05T01:02:17;8.35;;;5.40;;
29202;SDS011;16245;51.170;4.884;2022-08-05T01:04:43;8.65;;;5.53;;
29202;SDS011;16245;51.170;4.884;2022-08-05T01:07:09;8.48;;;6.20;;
29202;SDS011;16245;51.170;4.884;2022-08-05T01:09:35;11.75;;;5.60;;
29202;SDS011;16245;51.170;4.884;2022-08-05T01:12:08;7.55;;;4.68;;
29202;SDS011;16245;51.170;4.884;2022-08-05T01:14:46;7.38;;;5.13;;
29202;SDS011;16245;51.170;4.884;2022-08-05T01:17:22;6.05;;;5.25;;
29202;SDS011;16245;51.170;4.884;2022-08-05T01:31:03;7.32;;;4.72;;
29202;SDS011;16245;51.170;4.884;2022-08-05T01:33:49;5.15;;;3.53;;
29202;SDS011;16245;51.170;4.884;2022-08-05T01:36:19;7.30;;;4.20;;
29202;SDS011;16245;51.170;4.884;2022-08-05T01:38:49;5.38;;;3.97;;
29202;SDS011;16245;51.170;4.884;2022-08-05T01:41:15;6.72;;;4.40;;
29202;SDS011;16245;51.170;4.884;2022-08-05T01:43:44;11.48;;;5.65;;
29202;SDS011;16245;51.170;4.884;2022-08-05T01:46:10;8.93;;;5.60;;
29202;SDS011;16245;51.170;4.884;2022-08-05T01:48:36;10.57;;;5.38;;
29202;SDS011;16245;51.170;4.884;2022-08-05T01:51:03;6.53;;;4.38;;
29202;SDS011;16245;51.170;4.884;2022-08-05T01:53:31;7.68;;;4.80;;
29202;SDS011;16245;51.170;4.884;2022-08-05T01:56:00;7.82;;;5.32;;
29202;SDS011;16245;51.170;4.884;2022-08-05T01:58:28;9.93;;;4.82;;
29202;SDS011;16245;51.170;4.884;2022-08-05T02:00:56;8.00;;;4.75;;
29202;SDS011;16245;51.170;4.884;2022-08-05T02:03:24;7.35;;;5.10;;
29202;SDS011;16245;51.170;4.884;2022-08-05T02:06:02;9.32;;;5.93;;
29202;SDS011;16245;51.170;4.884;2022-08-05T02:08:30;8.15;;;5.25;;
29202;SDS011;16245;51.170;4.884;2022-08-05T02:10:58;7.47;;;6.07;;
29202;SDS011;16245;51.170;4.884;2022-08-05T02:16:43;9.40;;;5.57;;
29202;SDS011;16245;51.170;4.884;2022-08-05T02:19:16;11.13;;;6.00;;
29202;SDS011;16245;51.170;4.884;2022-08-05T02:22:00;7.05;;;5.20;;
29202;SDS011;16245;51.170;4.884;2022-08-05T02:24:37;10.38;;;6.50;;
29202;SDS011;16245;51.170;4.884;2022-08-05T02:27:05;9.68;;;6.28;;
29202;SDS011;16245;51.170;4.884;2022-08-05T02:29:34;11.38;;;4.68;;
29202;SDS011;16245;51.170;4.884;2022-08-05T02:32:01;10.98;;;4.18;;
29202;SDS011;16245;51.170;4.884;2022-08-05T02:34:30;14.93;;;5.72;;
29202;SDS011;16245;51.170;4.884;2022-08-05T02:37:00;13.15;;;6.30;;
29202;SDS011;16245;51.170;4.884;2022-08-05T02:39:28;8.23;;;4.70;;
29202;SDS011;16245;51.170;4.884;2022-08-05T02:41:59;8.25;;;5.72;;
29202;SDS011;16245;51.170;4.884;2022-08-05T02:44:26;10.35;;;5.47;;
29202;SDS011;16245;51.170;4.884;2022-08-05T02:46:54;12.73;;;5.57;;
29202;SDS011;16245;51.170;4.884;2022-08-05T02:49:21;12.48;;;5.43;;
29202;SDS011;16245;51.170;4.884;2022-08-05T02:51:48;7.20;;;5.47;;
29202;SDS011;16245;51.170;4.884;2022-08-05T02:54:16;10.73;;;6.72;;
29202;SDS011;16245;51.170;4.884;2022-08-05T02:56:43;9.25;;;5.50;;
29202;SDS011;16245;51.170;4.884;2022-08-05T02:59:10;11.95;;;6.05;;
29202;SDS011;16245;51.170;4.884;2022-08-05T03:01:37;11.20;;;6.25;;
29202;SDS011;16245;51.170;4.884;2022-08-05T03:04:04;8.48;;;5.30;;
29202;SDS011;16245;51.170;4.884;2022-08-05T03:06:34;11.18;;;6.78;;
29202;SDS011;16245;51.170;4.884;2022-08-05T03:09:02;13.20;;;7.20;;
29202;SDS011;16245;51.170;4.884;2022-08-05T03:11:28;11.48;;;6.38;;
29202;SDS011;16245;51.170;4.884;2022-08-05T03:13:54;13.77;;;6.35;;
29202;SDS011;16245;51.170;4.884;2022-08-05T03:16:20;13.40;;;7.10;;
29202;SDS011;16245;51.170;4.884;2022-08-05T03:18:46;10.82;;;7.00;;
29202;SDS011;16245;51.170;4.884;2022-08-05T03:21:11;13.63;;;8.13;;
29202;SDS011;16245;51.170;4.884;2022-08-05T03:23:38;10.90;;;6.80;;
29202;SDS011;16245;51.170;4.884;2022-08-05T03:26:06;11.57;;;6.22;;
29202;SDS011;16245;51.170;4.884;2022-08-05T03:28:32;10.23;;;7.28;;
29202;SDS011;16245;51.170;4.884;2022-08-05T03:30:58;12.55;;;7.32;;
29202;SDS011;16245;51.170;4.884;2022-08-05T03:33:26;12.65;;;8.00;;
29202;SDS011;16245;51.170;4.884;2022-08-05T03:35:52;9.32;;;6.28;;
29202;SDS011;16245;51.170;4.884;2022-08-05T03:38:21;10.90;;;5.82;;
29202;SDS011;16245;51.170;4.884;2022-08-05T03:40:47;13.48;;;7.80;;
29202;SDS011;16245;51.170;4.884;2022-08-05T03:43:13;13.77;;;7.40;;
29202;SDS011;16245;51.170;4.884;2022-08-05T03:45:39;13.40;;;6.22;;
29202;SDS011;16245;51.170;4.884;2022-08-05T03:48:05;9.25;;;5.72;;
29202;SDS011;16245;51.170;4.884;2022-08-05T03:50:32;14.60;;;7.68;;
29202;SDS011;16245;51.170;4.884;2022-08-05T03:53:13;8.13;;;6.35;;
29202;SDS011;16245;51.170;4.884;2022-08-05T03:55:51;13.13;;;6.65;;
29202;SDS011;16245;51.170;4.884;2022-08-05T03:58:22;11.00;;;6.97;;
29202;SDS011;16245;51.170;4.884;2022-08-05T04:00:51;11.73;;;6.57;;
29202;SDS011;16245;51.170;4.884;2022-08-05T04:03:19;9.15;;;6.28;;
29202;SDS011;16245;51.170;4.884;2022-08-05T04:05:46;11.02;;;6.05;;
29202;SDS011;16245;51.170;4.884;2022-08-05T04:08:14;11.85;;;6.32;;
29202;SDS011;16245;51.170;4.884;2022-08-05T04:10:39;9.27;;;5.15;;
29202;SDS011;16245;51.170;4.884;2022-08-05T04:13:07;10.65;;;5.68;;
29202;SDS011;16245;51.170;4.884;2022-08-05T04:15:33;10.85;;;7.70;;
29202;SDS011;16245;51.170;4.884;2022-08-05T04:18:05;10.80;;;6.15;;
29202;SDS011;16245;51.170;4.884;2022-08-05T04:20:31;10.68;;;6.13;;
29202;SDS011;16245;51.170;4.884;2022-08-05T04:22:56;10.32;;;5.85;;
29202;SDS011;16245;51.170;4.884;2022-08-05T04:25:22;12.13;;;5.70;;
29202;SDS011;16245;51.170;4.884;2022-08-05T04:27:48;12.05;;;6.78;;
29202;SDS011;16245;51.170;4.884;2022-08-05T04:30:13;6.90;;;4.85;;
29202;SDS011;16245;51.170;4.884;2022-08-05T04:32:39;10.60;;;5.78;;
29202;SDS011;16245;51.170;4.884;2022-08-05T04:35:05;11.75;;;6.40;;
29202;SDS011;16245;51.170;4.884;2022-08-05T04:37:31;9.02;;;6.38;;
29202;SDS011;16245;51.170;4.884;2022-08-05T04:39:57;14.73;;;6.57;;
29202;SDS011;16245;51.170;4.884;2022-08-05T04:42:23;9.32;;;6.80;;
29202;SDS011;16245;51.170;4.884;2022-08-05T04:44:49;10.68;;;7.07;;
29202;SDS011;16245;51.170;4.884;2022-08-05T04:47:15;8.55;;;5.50;;
29202;SDS011;16245;51.170;4.884;2022-08-05T04:49:40;11.68;;;7.38;;
29202;SDS011;16245;51.170;4.884;2022-08-05T04:52:06;12.75;;;7.38;;
29202;SDS011;16245;51.170;4.884;2022-08-05T04:54:32;9.23;;;5.82;;
29202;SDS011;16245;51.170;4.884;2022-08-05T04:56:57;10.02;;;6.03;;
29202;SDS011;16245;51.170;4.884;2022-08-05T04:59:23;13.68;;;6.65;;
29202;SDS011;16245;51.170;4.884;2022-08-05T05:01:49;15.43;;;7.68;;
29202;SDS011;16245;51.170;4.884;2022-08-05T05:04:18;13.30;;;8.15;;
29202;SDS011;16245;51.170;4.884;2022-08-05T05:06:44;12.48;;;6.93;;
29202;SDS011;16245;51.170;4.884;2022-08-05T05:09:10;15.13;;;6.68;;
29202;SDS011;16245;51.170;4.884;2022-08-05T05:11:36;10.35;;;6.63;;
29202;SDS011;16245;51.170;4.884;2022-08-05T05:14:02;13.23;;;8.93;;
29202;SDS011;16245;51.170;4.884;2022-08-05T05:16:28;10.43;;;7.05;;
29202;SDS011;16245;51.170;4.884;2022-08-05T05:18:54;11.82;;;7.03;;
29202;SDS011;16245;51.170;4.884;2022-08-05T05:21:20;8.55;;;6.63;;
29202;SDS011;16245;51.170;4.884;2022-08-05T05:23:45;13.13;;;6.13;;
29202;SDS011;16245;51.170;4.884;2022-08-05T05:26:11;7.05;;;5.50;;
29202;SDS011;16245;51.170;4.884;2022-08-05T05:28:36;9.60;;;5.95;;
29202;SDS011;16245;51.170;4.884;2022-08-05T05:31:02;10.35;;;5.50;;
29202;SDS011;16245;51.170;4.884;2022-08-05T05:33:28;10.73;;;6.15;;
29202;SDS011;16245;51.170;4.884;2022-08-05T05:35:53;12.95;;;6.85;;
29202;SDS011;16245;51.170;4.884;2022-08-05T05:38:19;12.07;;;6.55;;
29202;SDS011;16245;51.170;4.884;2022-08-05T05:40:45;10.40;;;5.85;;
29202;SDS011;16245;51.170;4.884;2022-08-05T05:43:10;9.07;;;6.45;;
29202;SDS011;16245;51.170;4.884;2022-08-05T05:45:36;9.85;;;6.68;;
29202;SDS011;16245;51.170;4.884;2022-08-05T05:48:02;9.60;;;6.18;;
29202;SDS011;16245;51.170;4.884;2022-08-05T05:50:31;9.98;;;7.03;;
29202;SDS011;16245;51.170;4.884;2022-08-05T05:52:57;11.32;;;6.57;;
29202;SDS011;16245;51.170;4.884;2022-08-05T05:55:22;9.85;;;5.93;;
29202;SDS011;16245;51.170;4.884;2022-08-05T05:57:48;13.35;;;6.57;;
29202;SDS011;16245;51.170;4.884;2022-08-05T06:00:15;8.77;;;5.97;;
29202;SDS011;16245;51.170;4.884;2022-08-05T06:02:43;12.77;;;7.32;;
29202;SDS011;16245;51.170;4.884;2022-08-05T06:05:10;9.25;;;6.47;;
29202;SDS011;16245;51.170;4.884;2022-08-05T06:07:37;12.00;;;6.00;;
29202;SDS011;16245;51.170;4.884;2022-08-05T06:10:03;8.43;;;5.90;;
29202;SDS011;16245;51.170;4.884;2022-08-05T06:12:30;13.32;;;6.45;;
29202;SDS011;16245;51.170;4.884;2022-08-05T06:14:56;8.07;;;5.18;;
29202;SDS011;16245;51.170;4.884;2022-08-05T06:17:24;9.50;;;5.00;;
29202;SDS011;16245;51.170;4.884;2022-08-05T06:19:49;10.05;;;5.30;;
29202;SDS011;16245;51.170;4.884;2022-08-05T06:22:21;9.57;;;6.10;;
29202;SDS011;16245;51.170;4.884;2022-08-05T06:24:48;10.90;;;6.28;;
29202;SDS011;16245;51.170;4.884;2022-08-05T06:27:14;8.70;;;4.80;;
29202;SDS011;16245;51.170;4.884;2022-08-05T06:29:40;7.38;;;4.93;;
29202;SDS011;16245;51.170;4.884;2022-08-05T06:32:05;10.32;;;4.78;;
29202;SDS011;16245;51.170;4.884;2022-08-05T06:34:32;6.25;;;4.63;;
29202;SDS011;16245;51.170;4.884;2022-08-05T06:36:57;11.88;;;5.00;;
29202;SDS011;16245;51.170;4.884;2022-08-05T06:39:23;9.70;;;4.97;;
29202;SDS011;16245;51.170;4.884;2022-08-05T06:41:49;11.32;;;4.82;;
29202;SDS011;16245;51.170;4.884;2022-08-05T06:44:15;10.93;;;5.10;;
29202;SDS011;16245;51.170;4.884;2022-08-05T06:46:41;8.93;;;4.50;;
29202;SDS011;16245;51.170;4.884;2022-08-05T06:49:06;8.75;;;4.95;;
29202;SDS011;16245;51.170;4.884;2022-08-05T06:51:32;7.10;;;4.20;;
29202;SDS011;16245;51.170;4.884;2022-08-05T06:53:58;6.65;;;4.75;;
29202;SDS011;16245;51.170;4.884;2022-08-05T06:56:25;9.07;;;4.70;;
29202;SDS011;16245;51.170;4.884;2022-08-05T06:58:52;9.07;;;4.30;;
29202;SDS011;16245;51.170;4.884;2022-08-05T07:01:18;9.23;;;5.20;;
29202;SDS011;16245;51.170;4.884;2022-08-05T07:03:44;9.63;;;4.47;;
29202;SDS011;16245;51.170;4.884;2022-08-05T07:06:10;7.53;;;4.07;;
29202;SDS011;16245;51.170;4.884;2022-08-05T07:08:36;5.82;;;4.00;;
29202;SDS011;16245;51.170;4.884;2022-08-05T07:11:01;8.48;;;4.90;;
29202;SDS011;16245;51.170;4.884;2022-08-05T07:13:29;9.73;;;4.55;;
29202;SDS011;16245;51.170;4.884;2022-08-05T07:16:13;10.95;;;4.53;;
29202;SDS011;16245;51.170;4.884;2022-08-05T07:18:57;8.50;;;4.50;;
29202;SDS011;16245;51.170;4.884;2022-08-05T07:21:23;8.52;;;4.55;;
29202;SDS011;16245;51.170;4.884;2022-08-05T07:23:48;6.88;;;4.00;;
29202;SDS011;16245;51.170;4.884;2022-08-05T07:26:14;8.38;;;4.20;;
29202;SDS011;16245;51.170;4.884;2022-08-05T07:28:40;7.78;;;4.40;;
29202;SDS011;16245;51.170;4.884;2022-08-05T07:31:06;8.02;;;4.20;;
29202;SDS011;16245;51.170;4.884;2022-08-05T07:33:32;6.05;;;3.70;;
29202;SDS011;16245;51.170;4.884;2022-08-05T07:35:58;6.70;;;3.95;;
29202;SDS011;16245;51.170;4.884;2022-08-05T07:38:24;8.57;;;3.38;;
29202;SDS011;16245;51.170;4.884;2022-08-05T07:40:50;8.15;;;3.78;;
29202;SDS011;16245;51.170;4.884;2022-08-05T07:43:19;8.38;;;3.20;;
29202;SDS011;16245;51.170;4.884;2022-08-05T07:45:45;7.03;;;3.10;;
29202;SDS011;16245;51.170;4.884;2022-08-05T07:48:10;4.85;;;2.22;;
29202;SDS011;16245;51.170;4.884;2022-08-05T07:50:36;5.65;;;2.72;;
29202;SDS011;16245;51.170;4.884;2022-08-05T07:53:02;7.95;;;2.83;;
29202;SDS011;16245;51.170;4.884;2022-08-05T07:55:28;9.52;;;2.78;;
29202;SDS011;16245;51.170;4.884;2022-08-05T07:57:55;4.70;;;2.03;;
29202;SDS011;16245;51.170;4.884;2022-08-05T08:00:21;3.50;;;2.10;;
29202;SDS011;16245;51.170;4.884;2022-08-05T08:02:47;3.35;;;1.88;;
29202;SDS011;16245;51.170;4.884;2022-08-05T08:05:12;4.80;;;2.05;;
29202;SDS011;16245;51.170;4.884;2022-08-05T08:07:39;3.60;;;1.80;;
29202;SDS011;16245;51.170;4.884;2022-08-05T08:10:05;4.28;;;1.63;;
29202;SDS011;16245;51.170;4.884;2022-08-05T08:12:30;4.10;;;1.67;;
29202;SDS011;16245;51.170;4.884;2022-08-05T08:14:56;4.28;;;1.70;;
29202;SDS011;16245;51.170;4.884;2022-08-05T08:17:22;5.45;;;1.83;;
29202;SDS011;16245;51.170;4.884;2022-08-05T08:19:48;3.33;;;1.60;;
29202;SDS011;16245;51.170;4.884;2022-08-05T08:22:23;2.60;;;1.35;;
29202;SDS011;16245;51.170;4.884;2022-08-05T08:24:50;6.20;;;1.63;;
29202;SDS011;16245;51.170;4.884;2022-08-05T08:27:16;4.05;;;1.75;;
29202;SDS011;16245;51.170;4.884;2022-08-05T08:29:42;3.47;;;1.70;;
29202;SDS011;16245;51.170;4.884;2022-08-05T08:32:08;3.17;;;1.83;;
29202;SDS011;16245;51.170;4.884;2022-08-05T08:34:34;5.40;;;1.95;;
29202;SDS011;16245;51.170;4.884;2022-08-05T08:37:00;4.88;;;1.85;;
29202;SDS011;16245;51.170;4.884;2022-08-05T08:39:26;6.10;;;1.90;;
29202;SDS011;16245;51.170;4.884;2022-08-05T08:41:52;3.28;;;1.95;;
29202;SDS011;16245;51.170;4.884;2022-08-05T08:44:20;5.53;;;2.08;;
29202;SDS011;16245;51.170;4.884;2022-08-05T08:46:48;5.13;;;2.35;;
29202;SDS011;16245;51.170;4.884;2022-08-05T08:49:15;4.70;;;2.30;;
29202;SDS011;16245;51.170;4.884;2022-08-05T08:51:46;3.95;;;2.10;;
29202;SDS011;16245;51.170;4.884;2022-08-05T08:54:12;4.35;;;2.20;;
29202;SDS011;16245;51.170;4.884;2022-08-05T08:56:38;4.43;;;2.03;;
29202;SDS011;16245;51.170;4.884;2022-08-05T08:59:04;3.47;;;1.65;;
29202;SDS011;16245;51.170;4.884;2022-08-05T09:01:30;8.73;;;2.40;;
29202;SDS011;16245;51.170;4.884;2022-08-05T09:03:56;5.93;;;2.10;;
29202;SDS011;16245;51.170;4.884;2022-08-05T09:06:24;6.72;;;2.15;;
29202;SDS011;16245;51.170;4.884;2022-08-05T09:08:52;6.63;;;2.08;;
29202;SDS011;16245;51.170;4.884;2022-08-05T09:11:18;4.63;;;2.00;;
29202;SDS011;16245;51.170;4.884;2022-08-05T09:13:44;3.70;;;2.30;;
29202;SDS011;16245;51.170;4.884;2022-08-05T09:16:11;3.72;;;2.20;;
29202;SDS011;16245;51.170;4.884;2022-08-05T09:18:37;5.78;;;2.35;;
29202;SDS011;16245;51.170;4.884;2022-08-05T09:21:03;4.45;;;2.17;;
29202;SDS011;16245;51.170;4.884;2022-08-05T09:23:29;3.67;;;2.20;;
29202;SDS011;16245;51.170;4.884;2022-08-05T09:26:56;5.57;;;1.98;;
29202;SDS011;16245;51.170;4.884;2022-08-05T09:28:53;4.30;;;2.00;;
29202;SDS011;16245;51.170;4.884;2022-08-05T09:31:25;3.92;;;1.80;;
29202;SDS011;16245;51.170;4.884;2022-08-05T09:34:24;4.80;;;1.92;;
29202;SDS011;16245;51.170;4.884;2022-08-05T09:36:46;5.03;;;1.88;;
29202;SDS011;16245;51.170;4.884;2022-08-05T09:39:18;3.42;;;1.95;;
29202;SDS011;16245;51.170;4.884;2022-08-05T09:44:49;2.78;;;1.20;;
29202;SDS011;16245;51.170;4.884;2022-08-05T09:47:18;5.30;;;1.25;;
29202;SDS011;16245;51.170;4.884;2022-08-05T09:49:47;2.08;;;1.20;;
29202;SDS011;16245;51.170;4.884;2022-08-05T09:55:02;4.00;;;1.17;;
29202;SDS011;16245;51.170;4.884;2022-08-05T09:57:40;4.05;;;1.27;;
29202;SDS011;16245;51.170;4.884;2022-08-05T10:02:44;4.82;;;1.20;;
29202;SDS011;16245;51.170;4.884;2022-08-05T10:05:15;1.63;;;0.95;;
29202;SDS011;16245;51.170;4.884;2022-08-05T10:07:50;2.33;;;1.10;;
29202;SDS011;16245;51.170;4.884;2022-08-05T10:10:27;4.78;;;1.60;;
29202;SDS011;16245;51.170;4.884;2022-08-05T10:13:02;1.88;;;1.00;;
29202;SDS011;16245;51.170;4.884;2022-08-05T10:15:29;3.67;;;1.10;;
29202;SDS011;16245;51.170;4.884;2022-08-05T10:18:15;4.90;;;1.42;;
29202;SDS011;16245;51.170;4.884;2022-08-05T10:20:50;1.50;;;1.00;;
29202;SDS011;16245;51.170;4.884;2022-08-05T10:23:18;2.40;;;1.23;;
29202;SDS011;16245;51.170;4.884;2022-08-05T10:25:45;1.83;;;1.00;;
29202;SDS011;16245;51.170;4.884;2022-08-05T10:28:11;1.58;;;0.95;;
29202;SDS011;16245;51.170;4.884;2022-08-05T10:30:37;4.25;;;1.27;;
29202;SDS011;16245;51.170;4.884;2022-08-05T10:33:04;2.17;;;0.98;;
29202;SDS011;16245;51.170;4.884;2022-08-05T10:35:30;2.47;;;1.17;;
29202;SDS011;16245;51.170;4.884;2022-08-05T10:37:57;2.22;;;1.23;;
29202;SDS011;16245;51.170;4.884;2022-08-05T10:40:42;2.58;;;1.30;;
29202;SDS011;16245;51.170;4.884;2022-08-05T10:43:28;2.38;;;1.25;;
29202;SDS011;16245;51.170;4.884;2022-08-05T10:45:59;3.28;;;1.15;;
29202;SDS011;16245;51.170;4.884;2022-08-05T10:48:30;2.83;;;1.00;;
29202;SDS011;16245;51.170;4.884;2022-08-05T10:51:05;1.38;;;1.15;;
29202;SDS011;16245;51.170;4.884;2022-08-05T10:53:31;3.63;;;1.33;;
29202;SDS011;16245;51.170;4.884;2022-08-05T10:56:28;2.28;;;1.13;;
29202;SDS011;16245;51.170;4.884;2022-08-05T11:01:30;3.03;;;0.98;;
29202;SDS011;16245;51.170;4.884;2022-08-05T11:04:06;3.20;;;1.33;;
29202;SDS011;16245;51.170;4.884;2022-08-05T11:06:33;2.92;;;1.40;;
29202;SDS011;16245;51.170;4.884;2022-08-05T11:09:10;4.97;;;1.27;;
29202;SDS011;16245;51.170;4.884;2022-08-05T11:11:44;3.22;;;0.88;;
29202;SDS011;16245;51.170;4.884;2022-08-05T11:14:11;3.90;;;1.20;;
29202;SDS011;16245;51.170;4.884;2022-08-05T11:16:37;2.92;;;1.17;;
29202;SDS011;16245;51.170;4.884;2022-08-05T11:21:53;5.07;;;1.23;;
29202;SDS011;16245;51.170;4.884;2022-08-05T11:24:19;4.32;;;1.42;;
29202;SDS011;16245;51.170;4.884;2022-08-05T11:26:45;5.25;;;0.90;;
29202;SDS011;16245;51.170;4.884;2022-08-05T11:34:53;3.28;;;1.33;;
29202;SDS011;16245;51.170;4.884;2022-08-05T11:40:04;2.00;;;0.90;;
29202;SDS011;16245;51.170;4.884;2022-08-05T11:42:33;5.25;;;1.63;;
29202;SDS011;16245;51.170;4.884;2022-08-05T11:45:03;1.15;;;0.85;;
29202;SDS011;16245;51.170;4.884;2022-08-05T11:47:30;3.67;;;1.10;;
29202;SDS011;16245;51.170;4.884;2022-08-05T11:49:59;2.85;;;0.80;;
29202;SDS011;16245;51.170;4.884;2022-08-05T11:52:25;2.92;;;0.90;;
29202;SDS011;16245;51.170;4.884;2022-08-05T11:54:52;7.40;;;1.30;;
29202;SDS011;16245;51.170;4.884;2022-08-05T11:57:18;3.00;;;0.95;;
29202;SDS011;16245;51.170;4.884;2022-08-05T11:59:44;2.05;;;1.02;;
29202;SDS011;16245;51.170;4.884;2022-08-05T12:02:10;3.40;;;0.98;;
29202;SDS011;16245;51.170;4.884;2022-08-05T12:04:40;1.77;;;1.10;;
29202;SDS011;16245;51.170;4.884;2022-08-05T12:07:11;2.13;;;0.90;;
29202;SDS011;16245;51.170;4.884;2022-08-05T12:09:40;3.55;;;1.10;;
29202;SDS011;16245;51.170;4.884;2022-08-05T12:12:07;2.67;;;1.08;;
29202;SDS011;16245;51.170;4.884;2022-08-05T12:14:36;2.60;;;1.05;;
29202;SDS011;16245;51.170;4.884;2022-08-05T12:17:10;3.50;;;0.98;;
29202;SDS011;16245;51.170;4.884;2022-08-05T12:19:40;2.42;;;1.05;;
29202;SDS011;16245;51.170;4.884;2022-08-05T12:22:11;2.20;;;0.90;;
29202;SDS011;16245;51.170;4.884;2022-08-05T12:24:42;4.82;;;1.42;;
29202;SDS011;16245;51.170;4.884;2022-08-05T12:27:26;3.45;;;1.13;;
29202;SDS011;16245;51.170;4.884;2022-08-05T12:30:06;3.25;;;1.35;;
29202;SDS011;16245;51.170;4.884;2022-08-05T12:32:34;3.08;;;1.38;;
29202;SDS011;16245;51.170;4.884;2022-08-05T12:35:08;4.15;;;1.08;;
29202;SDS011;16245;51.170;4.884;2022-08-05T12:37:34;4.28;;;1.23;;
29202;SDS011;16245;51.170;4.884;2022-08-05T12:40:01;2.83;;;0.80;;
29202;SDS011;16245;51.170;4.884;2022-08-05T12:42:28;2.72;;;0.90;;
29202;SDS011;16245;51.170;4.884;2022-08-05T12:45:07;2.00;;;1.30;;
29202;SDS011;16245;51.170;4.884;2022-08-05T12:47:34;3.63;;;1.00;;
29202;SDS011;16245;51.170;4.884;2022-08-05T12:50:11;2.58;;;1.08;;
29202;SDS011;16245;51.170;4.884;2022-08-05T12:52:38;1.90;;;0.90;;
29202;SDS011;16245;51.170;4.884;2022-08-05T12:55:23;1.85;;;1.05;;
29202;SDS011;16245;51.170;4.884;2022-08-05T12:57:51;2.35;;;0.80;;
29202;SDS011;16245;51.170;4.884;2022-08-05T13:00:27;1.90;;;0.90;;
29202;SDS011;16245;51.170;4.884;2022-08-05T13:02:57;2.95;;;0.98;;
29202;SDS011;16245;51.170;4.884;2022-08-05T13:05:23;1.05;;;0.63;;
29202;SDS011;16245;51.170;4.884;2022-08-05T13:07:49;1.95;;;0.68;;
29202;SDS011;16245;51.170;4.884;2022-08-05T13:10:15;1.95;;;0.75;;
29202;SDS011;16245;51.170;4.884;2022-08-05T13:12:42;0.95;;;0.43;;
29202;SDS011;16245;51.170;4.884;2022-08-05T13:15:09;2.05;;;0.70;;
29202;SDS011;16245;51.170;4.884;2022-08-05T13:17:36;2.67;;;0.75;;
29202;SDS011;16245;51.170;4.884;2022-08-05T13:22:31;2.10;;;0.70;;
29202;SDS011;16245;51.170;4.884;2022-08-05T13:25:03;2.80;;;0.60;;
29202;SDS011;16245;51.170;4.884;2022-08-05T13:27:31;1.40;;;0.60;;
29202;SDS011;16245;51.170;4.884;2022-08-05T13:29:58;1.17;;;0.55;;
29202;SDS011;16245;51.170;4.884;2022-08-05T13:32:25;2.15;;;0.73;;
29202;SDS011;16245;51.170;4.884;2022-08-05T13:34:51;1.15;;;0.80;;
29202;SDS011;16245;51.170;4.884;2022-08-05T13:37:18;1.88;;;0.70;;
29202;SDS011;16245;51.170;4.884;2022-08-05T13:39:47;3.13;;;0.80;;
29202;SDS011;16245;51.170;4.884;2022-08-05T13:42:14;0.95;;;0.70;;
29202;SDS011;16245;51.170;4.884;2022-08-05T13:44:39;3.03;;;0.70;;
29202;SDS011;16245;51.170;4.884;2022-08-05T13:47:06;2.28;;;0.63;;
29202;SDS011;16245;51.170;4.884;2022-08-05T13:49:31;1.08;;;0.50;;
29202;SDS011;16245;51.170;4.884;2022-08-05T13:51:57;2.45;;;0.80;;
29202;SDS011;16245;51.170;4.884;2022-08-05T13:54:37;0.47;;;0.47;;
29202;SDS011;16245;51.170;4.884;2022-08-05T13:57:03;1.45;;;0.73;;
29202;SDS011;16245;51.170;4.884;2022-08-05T13:59:29;2.97;;;0.60;;
29202;SDS011;16245;51.170;4.884;2022-08-05T14:01:55;1.15;;;0.70;;
29202;SDS011;16245;51.170;4.884;2022-08-05T14:04:22;3.30;;;0.60;;
29202;SDS011;16245;51.170;4.884;2022-08-05T14:07:06;2.42;;;0.60;;
29202;SDS011;16245;51.170;4.884;2022-08-05T14:09:32;2.30;;;0.50;;
29202;SDS011;16245;51.170;4.884;2022-08-05T14:11:58;0.47;;;0.47;;
29202;SDS011;16245;51.170;4.884;2022-08-05T14:14:24;0.75;;;0.60;;
29202;SDS011;16245;51.170;4.884;2022-08-05T14:16:50;1.75;;;0.63;;
29202;SDS011;16245;51.170;4.884;2022-08-05T14:19:15;0.40;;;0.40;;
29202;SDS011;16245;51.170;4.884;2022-08-05T14:21:41;0.60;;;0.40;;
29202;SDS011;16245;51.170;4.884;2022-08-05T14:24:07;0.77;;;0.50;;
29202;SDS011;16245;51.170;4.884;2022-08-05T14:26:35;3.88;;;0.65;;
29202;SDS011;16245;51.170;4.884;2022-08-05T14:29:01;0.98;;;0.52;;
29202;SDS011;16245;51.170;4.884;2022-08-05T14:31:27;1.35;;;0.50;;
29202;SDS011;16245;51.170;4.884;2022-08-05T14:33:53;2.30;;;0.80;;
29202;SDS011;16245;51.170;4.884;2022-08-05T14:36:19;3.35;;;0.70;;
29202;SDS011;16245;51.170;4.884;2022-08-05T14:38:48;2.33;;;0.70;;
29202;SDS011;16245;51.170;4.884;2022-08-05T14:41:15;2.60;;;0.50;;
29202;SDS011;16245;51.170;4.884;2022-08-05T14:43:40;0.68;;;0.40;;
29202;SDS011;16245;51.170;4.884;2022-08-05T14:46:06;1.20;;;0.60;;
29202;SDS011;16245;51.170;4.884;2022-08-05T14:48:32;1.73;;;0.57;;
29202;SDS011;16245;51.170;4.884;2022-08-05T14:50:57;2.70;;;0.77;;
29202;SDS011;16245;51.170;4.884;2022-08-05T14:53:23;1.92;;;0.50;;
29202;SDS011;16245;51.170;4.884;2022-08-05T14:55:49;5.70;;;0.70;;
29202;SDS011;16245;51.170;4.884;2022-08-05T14:58:17;1.88;;;0.70;;
29202;SDS011;16245;51.170;4.884;2022-08-05T15:00:43;3.10;;;0.77;;
29202;SDS011;16245;51.170;4.884;2022-08-05T15:03:08;2.33;;;0.60;;
29202;SDS011;16245;51.170;4.884;2022-08-05T15:05:34;1.20;;;0.68;;
29202;SDS011;16245;51.170;4.884;2022-08-05T15:08:00;2.65;;;0.88;;
29202;SDS011;16245;51.170;4.884;2022-08-05T15:10:27;2.58;;;0.90;;
29202;SDS011;16245;51.170;4.884;2022-08-05T15:12:52;2.97;;;0.80;;
29202;SDS011;16245;51.170;4.884;2022-08-05T15:15:18;2.30;;;0.60;;
29202;SDS011;16245;51.170;4.884;2022-08-05T15:17:44;1.83;;;0.82;;
29202;SDS011;16245;51.170;4.884;2022-08-05T15:20:10;3.15;;;0.77;;
29202;SDS011;16245;51.170;4.884;2022-08-05T15:22:36;1.75;;;0.60;;
29202;SDS011;16245;51.170;4.884;2022-08-05T15:25:02;1.77;;;0.73;;
29202;SDS011;16245;51.170;4.884;2022-08-05T15:27:29;3.40;;;0.75;;
29202;SDS011;16245;51.170;4.884;2022-08-05T15:29:55;1.70;;;0.65;;